createdAt,value
2018-09-30T00:00:53.358Z,7.77
2018-09-30T00:03:22.509Z,7.76
2018-09-30T00:05:51.284Z,7.75
2018-09-30T00:08:20.054Z,7.73
2018-09-30T00:10:48.896Z,7.71
2018-09-30T00:13:17.849Z,7.69
2018-09-30T00:15:46.692Z,7.66
2018-09-30T00:18:15.996Z,7.62
2018-09-30T00:20:44.898Z,7.60
2018-09-30T00:23:13.998Z,7.57
2018-09-30T00:25:48.919Z,7.55
2018-09-30T00:28:17.715Z,7.54
2018-09-30T00:30:46.911Z,7.52
2018-09-30T00:33:15.711Z,7.49
2018-09-30T00:35:44.523Z,7.47
2018-09-30T00:38:13.281Z,7.46
2018-09-30T00:40:42.194Z,7.44
2018-09-30T00:43:10.914Z,7.42
2018-09-30T00:45:39.960Z,7.40
2018-09-30T00:48:08.850Z,7.37
2018-09-30T00:50:38.071Z,7.34
2018-09-30T00:53:06.915Z,7.28
2018-09-30T00:55:36.026Z,7.27
2018-09-30T00:58:05.218Z,7.26
2018-09-30T01:00:34.062Z,7.25
2018-09-30T01:03:03.236Z,7.26
2018-09-30T01:05:32.449Z,7.25
2018-09-30T01:08:01.571Z,7.23
2018-09-30T01:10:30.541Z,7.21
2018-09-30T01:12:59.391Z,7.17
2018-09-30T01:15:28.937Z,7.19
2018-09-30T01:17:57.831Z,7.16
2018-09-30T01:20:27.528Z,7.10
2018-09-30T01:22:56.422Z,7.08
2018-09-30T01:25:25.690Z,7.06
2018-09-30T01:27:54.595Z,7.02
2018-09-30T01:30:23.825Z,6.97
2018-09-30T01:32:52.644Z,6.95
2018-09-30T01:35:21.530Z,6.92
2018-09-30T01:37:50.690Z,6.87
2018-09-30T01:40:19.812Z,6.85
2018-09-30T01:42:48.530Z,6.80
2018-09-30T01:45:18.066Z,6.77
2018-09-30T01:47:47.161Z,6.72
2018-09-30T01:50:16.201Z,6.73
2018-09-30T01:52:55.276Z,6.71
2018-09-30T01:55:24.193Z,6.66
2018-09-30T01:57:53.290Z,6.62
2018-09-30T02:00:22.155Z,6.60
2018-09-30T02:02:50.989Z,6.57
2018-09-30T02:05:19.810Z,6.53
2018-09-30T02:07:49.331Z,6.50
2018-09-30T02:10:18.741Z,6.48
2018-09-30T02:12:47.635Z,6.47
2018-09-30T02:15:16.461Z,6.42
2018-09-30T02:17:45.380Z,6.38
2018-09-30T02:20:14.371Z,6.40
2018-09-30T02:22:43.255Z,6.38
2018-09-30T02:25:12.042Z,6.38
2018-09-30T02:27:41.335Z,6.36
2018-09-30T02:30:10.110Z,6.33
2018-09-30T02:32:38.946Z,6.33
2018-09-30T02:35:07.825Z,6.32
2018-09-30T02:37:36.660Z,6.32
2018-09-30T02:40:05.787Z,6.29
2018-09-30T02:42:34.846Z,6.29
2018-09-30T02:45:03.991Z,6.25
2018-09-30T02:47:32.760Z,6.24
2018-09-30T02:50:01.618Z,6.24
2018-09-30T02:52:30.412Z,6.22
2018-09-30T02:54:59.250Z,6.20
2018-09-30T02:57:28.044Z,6.17
2018-09-30T02:59:57.280Z,6.15
2018-09-30T03:02:26.379Z,6.16
2018-09-30T03:04:55.234Z,6.12
2018-09-30T03:07:29.168Z,6.15
2018-09-30T03:09:57.896Z,6.13
2018-09-30T03:12:26.674Z,6.11
2018-09-30T03:14:55.814Z,6.06
2018-09-30T03:17:24.970Z,6.07
2018-09-30T03:19:53.955Z,6.07
2018-09-30T03:22:22.751Z,6.08
2018-09-30T03:24:51.827Z,6.04
2018-09-30T03:27:21.117Z,6.02
2018-09-30T03:29:50.106Z,6.01
2018-09-30T03:32:19.094Z,5.99
2018-09-30T03:34:48.238Z,5.96
2018-09-30T03:37:17.013Z,5.95
2018-09-30T03:39:46.345Z,5.93
2018-09-30T03:42:15.454Z,5.90
2018-09-30T03:44:44.443Z,5.87
2018-09-30T03:47:13.436Z,5.83
2018-09-30T03:49:42.180Z,5.82
2018-09-30T03:52:10.978Z,5.80
2018-09-30T03:54:40.070Z,5.78
2018-09-30T03:57:09.499Z,5.78
2018-09-30T03:59:38.533Z,5.76
2018-09-30T04:02:07.763Z,5.74
2018-09-30T04:04:36.540Z,5.73
2018-09-30T04:07:05.306Z,5.72
2018-09-30T04:09:34.164Z,5.74
2018-09-30T04:12:02.914Z,5.75
2018-09-30T04:14:31.697Z,5.76
2018-09-30T04:17:00.580Z,5.75
2018-09-30T04:19:29.871Z,5.73
2018-09-30T04:21:58.908Z,5.70
2018-09-30T04:24:27.684Z,5.65
2018-09-30T04:26:56.946Z,5.61
2018-09-30T04:29:25.704Z,5.56
2018-09-30T04:31:54.624Z,5.53
2018-09-30T04:34:23.466Z,5.50
2018-09-30T04:36:52.186Z,5.48
2018-09-30T04:39:21.224Z,5.47
2018-09-30T04:41:49.968Z,5.45
2018-09-30T04:44:18.762Z,5.44
2018-09-30T04:46:47.505Z,5.40
2018-09-30T04:49:16.426Z,5.36
2018-09-30T04:51:45.483Z,5.33
2018-09-30T04:54:14.280Z,5.33
2018-09-30T04:56:43.107Z,5.32
2018-09-30T04:59:11.920Z,5.32
2018-09-30T05:01:41.059Z,5.31
2018-09-30T05:04:10.131Z,5.31
2018-09-30T05:06:38.998Z,5.29
2018-09-30T05:09:08.826Z,5.29
2018-09-30T05:11:37.696Z,5.26
2018-09-30T05:14:06.771Z,5.26
2018-09-30T05:16:35.831Z,5.25
2018-09-30T05:19:04.607Z,5.25
2018-09-30T05:21:33.590Z,5.22
2018-09-30T05:24:02.347Z,5.21
2018-09-30T05:26:31.353Z,5.21
2018-09-30T05:29:00.385Z,5.18
2018-09-30T05:31:29.142Z,5.18
2018-09-30T05:33:58.017Z,5.15
2018-09-30T05:36:27.377Z,5.12
2018-09-30T05:38:56.389Z,5.13
2018-09-30T05:41:25.212Z,5.12
2018-09-30T05:43:54.006Z,5.10
2018-09-30T05:46:22.958Z,5.11
2018-09-30T05:48:51.743Z,5.11
2018-09-30T05:51:20.589Z,5.10
2018-09-30T05:53:49.322Z,5.10
2018-09-30T05:56:18.400Z,5.11
2018-09-30T05:58:47.394Z,5.12
2018-09-30T06:01:16.133Z,5.12
2018-09-30T06:03:44.932Z,5.13
2018-09-30T06:06:13.949Z,5.12
2018-09-30T06:08:43.347Z,5.12
2018-09-30T06:11:12.352Z,5.09
2018-09-30T06:13:41.429Z,5.08
2018-09-30T06:16:10.519Z,5.07
2018-09-30T06:18:39.269Z,5.05
2018-09-30T06:21:08.675Z,5.01
2018-09-30T06:23:37.707Z,4.98
2018-09-30T06:26:06.461Z,4.95
2018-09-30T06:28:35.384Z,4.98
2018-09-30T06:31:04.206Z,4.98
2018-09-30T06:33:33.191Z,5.02
2018-09-30T06:36:02.022Z,5.04
2018-09-30T06:38:30.967Z,5.06
2018-09-30T06:40:59.798Z,5.11
2018-09-30T06:43:29.075Z,5.21
2018-09-30T06:46:04.830Z,5.30
2018-09-30T06:48:33.836Z,5.38
2018-09-30T06:51:02.886Z,5.45
2018-09-30T06:53:31.649Z,5.55
2018-09-30T06:56:00.804Z,5.60
2018-09-30T06:58:29.608Z,5.66
2018-09-30T07:00:59.100Z,5.75
2018-09-30T07:03:29.132Z,5.82
2018-09-30T07:05:58.185Z,5.88
2018-09-30T07:08:27.258Z,5.96
2018-09-30T07:10:56.341Z,6.01
2018-09-30T07:13:25.493Z,6.06
2018-09-30T07:15:55.346Z,6.16
2018-09-30T07:18:24.217Z,6.27
2018-09-30T07:20:52.953Z,6.36
2018-09-30T07:23:21.824Z,6.44
2018-09-30T07:25:51.566Z,6.55
2018-09-30T07:28:20.358Z,6.64
2018-09-30T07:30:49.208Z,6.75
2018-09-30T07:33:18.057Z,6.84
2018-09-30T07:35:46.832Z,6.97
2018-09-30T07:38:15.841Z,7.10
2018-09-30T07:40:47.510Z,7.23
2018-09-30T07:43:16.285Z,7.29
2018-09-30T07:45:45.704Z,7.42
2018-09-30T07:48:14.545Z,7.59
2018-09-30T07:50:43.356Z,7.72
2018-09-30T07:53:12.370Z,7.86
2018-09-30T07:55:41.324Z,8.03
2018-09-30T07:58:10.362Z,8.21
2018-09-30T08:00:44.991Z,8.38
2018-09-30T08:03:14.195Z,8.55
2018-09-30T08:05:43.521Z,8.76
2018-09-30T08:08:12.591Z,8.98
2018-09-30T08:10:41.451Z,9.14
2018-09-30T08:13:10.543Z,9.31
2018-09-30T08:15:39.704Z,9.51
2018-09-30T08:18:08.717Z,9.72
2018-09-30T08:20:37.715Z,9.92
2018-09-30T08:23:06.811Z,10.14
2018-09-30T08:25:36.347Z,10.36
2018-09-30T08:28:05.165Z,10.55
2018-09-30T08:30:34.024Z,10.71
2018-09-30T08:33:02.790Z,10.91
2018-09-30T08:35:31.634Z,11.13
2018-09-30T08:38:05.505Z,11.35
2018-09-30T08:40:39.432Z,11.56
2018-09-30T08:43:08.791Z,11.79
2018-09-30T08:45:38.064Z,11.97
2018-09-30T08:48:06.981Z,12.14
2018-09-30T08:50:35.761Z,12.33
2018-09-30T08:53:04.508Z,12.54
2018-09-30T08:55:33.335Z,12.77
2018-09-30T08:58:02.388Z,12.92
2018-09-30T09:00:31.139Z,13.06
2018-09-30T09:03:00.340Z,13.20
2018-09-30T09:05:29.474Z,13.35
2018-09-30T09:07:58.360Z,13.50
2018-09-30T09:10:27.144Z,13.68
2018-09-30T09:12:55.975Z,13.87
2018-09-30T09:15:24.892Z,14.01
2018-09-30T09:17:54.027Z,14.19
2018-09-30T09:20:22.841Z,14.38
2018-09-30T09:22:51.656Z,14.48
2018-09-30T09:25:20.503Z,14.59
2018-09-30T09:27:49.701Z,14.68
2018-09-30T09:30:18.612Z,14.75
2018-09-30T09:32:47.631Z,14.81
2018-09-30T09:35:16.784Z,14.83
2018-09-30T09:37:45.617Z,14.87
2018-09-30T09:40:14.674Z,14.90
2018-09-30T09:42:43.447Z,14.94
2018-09-30T09:45:12.554Z,14.95
2018-09-30T09:47:41.348Z,14.99
2018-09-30T09:50:10.472Z,15.08
2018-09-30T09:52:39.578Z,15.13
2018-09-30T09:55:08.311Z,15.29
2018-09-30T09:57:37.693Z,15.42
2018-09-30T10:00:07.419Z,15.54
2018-09-30T10:02:36.163Z,15.71
2018-09-30T10:05:05.094Z,15.82
2018-09-30T10:07:33.914Z,15.94
2018-09-30T10:10:02.709Z,16.11
2018-09-30T10:12:31.486Z,16.31
2018-09-30T10:15:00.271Z,16.40
2018-09-30T10:17:29.081Z,16.58
2018-09-30T10:19:57.863Z,16.79
2018-09-30T10:22:26.935Z,16.96
2018-09-30T10:24:55.742Z,17.09
2018-09-30T10:27:24.464Z,17.17
2018-09-30T10:29:53.614Z,17.34
2018-09-30T10:32:22.544Z,17.47
2018-09-30T10:34:51.629Z,17.67
2018-09-30T10:37:20.421Z,17.89
2018-09-30T10:39:49.468Z,18.12
2018-09-30T10:42:18.771Z,18.41
2018-09-30T10:44:47.568Z,18.69
2018-09-30T10:47:16.344Z,18.81
2018-09-30T10:49:45.439Z,19.09
2018-09-30T10:52:14.465Z,19.37
2018-09-30T10:54:43.529Z,19.54
2018-09-30T10:57:12.340Z,19.70
2018-09-30T10:59:41.177Z,19.98
2018-09-30T11:02:10.207Z,20.07
2018-09-30T11:04:39.005Z,20.17
2018-09-30T11:07:08.431Z,20.39
2018-09-30T11:09:37.254Z,20.49
2018-09-30T11:12:06.387Z,20.45
2018-09-30T11:14:35.445Z,20.33
2018-09-30T11:17:04.230Z,20.47
2018-09-30T11:19:33.022Z,20.41
2018-09-30T11:22:01.815Z,20.26
2018-09-30T11:24:30.854Z,20.35
2018-09-30T11:26:59.675Z,20.65
2018-09-30T11:31:56.396Z,20.85
2018-09-30T11:34:25.088Z,20.58
2018-09-30T11:36:53.861Z,20.44
2018-09-30T11:39:22.704Z,20.37
2018-09-30T11:41:51.470Z,20.39
2018-09-30T11:44:20.466Z,20.36
2018-09-30T11:46:49.254Z,20.23
2018-09-30T11:49:18.641Z,20.04
2018-09-30T11:51:47.420Z,19.74
2018-09-30T11:54:16.614Z,19.58
2018-09-30T11:56:45.878Z,19.40
2018-09-30T11:59:14.755Z,19.27
2018-09-30T12:01:50.409Z,19.13
2018-09-30T12:04:19.472Z,19.32
2018-09-30T12:06:48.515Z,19.53
2018-09-30T12:09:17.240Z,19.69
2018-09-30T12:11:46.338Z,20.02
2018-09-30T12:14:15.767Z,20.27
2018-09-30T12:16:44.975Z,20.35
2018-09-30T12:19:14.074Z,20.49
2018-09-30T12:21:43.104Z,20.76
2018-09-30T12:24:12.052Z,21.02
2018-09-30T12:26:41.057Z,21.21
2018-09-30T12:29:10.161Z,21.30
2018-09-30T12:31:39.467Z,21.42
2018-09-30T12:34:08.537Z,21.33
2018-09-30T12:36:37.629Z,21.04
2018-09-30T12:39:08.788Z,20.86
2018-09-30T12:41:37.531Z,20.83
2018-09-30T12:44:06.358Z,20.87
2018-09-30T12:46:35.190Z,20.71
2018-09-30T12:49:04.302Z,20.52
2018-09-30T12:51:33.724Z,20.05
2018-09-30T12:54:02.597Z,20.09
2018-09-30T12:56:31.493Z,20.05
2018-09-30T12:59:00.382Z,20.28
2018-09-30T13:01:29.337Z,20.39
2018-09-30T13:03:58.206Z,20.30
2018-09-30T13:06:27.117Z,20.01
2018-09-30T13:08:55.957Z,19.88
2018-09-30T13:11:24.729Z,19.65
2018-09-30T13:13:53.589Z,19.42
2018-09-30T13:16:22.566Z,19.28
2018-09-30T13:18:51.791Z,19.05
2018-09-30T13:21:21.324Z,18.98
2018-09-30T13:23:50.423Z,19.02
2018-09-30T13:26:19.285Z,19.09
2018-09-30T13:28:49.130Z,19.18
2018-09-30T13:31:17.977Z,19.33
2018-09-30T13:33:47.150Z,19.50
2018-09-30T13:36:16.086Z,19.84
2018-09-30T13:38:45.079Z,19.94
2018-09-30T13:41:13.990Z,20.14
2018-09-30T13:43:46.233Z,20.30
2018-09-30T13:46:15.152Z,20.35
2018-09-30T13:48:44.890Z,20.54
2018-09-30T13:51:13.617Z,20.66
2018-09-30T13:53:42.370Z,20.73
2018-09-30T13:56:11.337Z,20.59
2018-09-30T13:58:40.235Z,20.45
2018-09-30T14:01:09.080Z,20.30
2018-09-30T14:03:38.122Z,20.13
2018-09-30T14:06:07.526Z,19.80
2018-09-30T14:08:36.491Z,19.50
2018-09-30T14:11:05.489Z,19.29
2018-09-30T14:13:34.591Z,19.11
2018-09-30T14:16:03.406Z,18.98
2018-09-30T14:18:32.339Z,18.72
2018-09-30T14:21:02.120Z,18.60
2018-09-30T14:23:31.247Z,18.55
2018-09-30T14:26:00.079Z,18.45
2018-09-30T14:28:28.816Z,18.39
2018-09-30T14:30:57.908Z,18.42
2018-09-30T14:33:26.953Z,18.48
2018-09-30T14:35:56.050Z,18.50
2018-09-30T14:38:25.267Z,18.47
2018-09-30T14:40:54.605Z,18.51
2018-09-30T14:43:23.346Z,18.49
2018-09-30T14:45:52.472Z,18.60
2018-09-30T14:48:22.142Z,18.55
2018-09-30T14:50:51.167Z,18.57
2018-09-30T14:53:20.319Z,18.65
2018-09-30T14:55:49.173Z,18.62
2018-09-30T14:58:17.994Z,18.61
2018-09-30T15:00:46.846Z,18.58
2018-09-30T15:03:15.663Z,18.54
2018-09-30T15:05:44.739Z,18.55
2018-09-30T15:08:13.916Z,18.47
2018-09-30T15:10:42.794Z,18.42
2018-09-30T15:13:11.518Z,18.34
2018-09-30T15:15:40.637Z,18.15
2018-09-30T15:18:09.512Z,18.05
2018-09-30T15:20:38.622Z,17.94
2018-09-30T15:23:08.040Z,17.88
2018-09-30T15:25:37.178Z,17.92
2018-09-30T15:28:06.269Z,17.91
2018-09-30T15:30:35.027Z,17.89
2018-09-30T15:33:03.815Z,17.86
2018-09-30T15:35:33.378Z,17.80
2018-09-30T15:38:02.351Z,17.74
2018-09-30T15:40:31.133Z,17.65
2018-09-30T15:43:00.194Z,17.55
2018-09-30T15:45:28.947Z,17.47
2018-09-30T15:47:57.803Z,17.39
2018-09-30T15:50:26.617Z,17.28
2018-09-30T15:52:55.713Z,17.25
2018-09-30T15:55:25.058Z,17.22
2018-09-30T15:57:54.225Z,17.19
2018-09-30T16:00:23.665Z,17.17
2018-09-30T16:02:52.804Z,17.17
2018-09-30T16:05:21.625Z,17.15
2018-09-30T16:07:50.447Z,17.12
2018-09-30T16:10:19.271Z,17.09
2018-09-30T16:12:48.097Z,16.97
2018-09-30T16:15:17.425Z,16.94
2018-09-30T16:17:46.949Z,16.87
2018-09-30T16:20:16.107Z,16.83
2018-09-30T16:22:45.169Z,16.78
2018-09-30T16:25:14.000Z,16.76
2018-09-30T16:27:42.774Z,16.75
2018-09-30T16:30:11.904Z,16.72
2018-09-30T16:32:41.357Z,16.68
2018-09-30T16:35:10.140Z,16.63
2018-09-30T16:37:39.011Z,16.58
2018-09-30T16:40:07.817Z,16.49
2018-09-30T16:42:38.131Z,16.41
2018-09-30T16:45:07.246Z,16.31
2018-09-30T16:47:35.991Z,16.20
2018-09-30T16:50:04.894Z,16.12
2018-09-30T16:52:33.633Z,16.06
2018-09-30T16:55:02.656Z,16.00
2018-09-30T16:57:31.529Z,15.89
2018-09-30T17:00:00.278Z,15.82
2018-09-30T17:02:29.041Z,15.75
2018-09-30T17:04:58.071Z,15.67
2018-09-30T17:07:27.452Z,15.59
2018-09-30T17:09:56.533Z,15.52
2018-09-30T17:12:25.610Z,15.46
2018-09-30T17:14:54.821Z,15.39
2018-09-30T17:17:23.735Z,15.36
2018-09-30T17:19:53.034Z,15.37
2018-09-30T17:22:22.132Z,15.38
2018-09-30T17:24:51.252Z,15.38
2018-09-30T17:27:20.335Z,15.33
2018-09-30T17:29:49.516Z,15.31
2018-09-30T17:32:18.694Z,15.29
2018-09-30T17:34:47.538Z,15.26
2018-09-30T17:37:16.882Z,15.20
2018-09-30T17:39:46.044Z,15.14
2018-09-30T17:42:14.818Z,15.09
2018-09-30T17:44:43.938Z,15.05
2018-09-30T17:47:13.531Z,14.96
2018-09-30T17:49:42.318Z,14.84
2018-09-30T17:52:11.257Z,14.76
2018-09-30T17:54:40.487Z,14.68
2018-09-30T17:57:09.790Z,14.59
2018-09-30T17:59:38.911Z,14.51
2018-09-30T18:02:07.769Z,14.44
2018-09-30T18:04:37.268Z,14.37
2018-09-30T18:07:07.297Z,14.31
2018-09-30T18:09:36.189Z,14.25
2018-09-30T18:12:06.094Z,14.17
2018-09-30T18:14:35.308Z,14.10
2018-09-30T18:17:04.233Z,14.04
2018-09-30T18:19:33.925Z,13.99
2018-09-30T18:22:02.742Z,13.96
2018-09-30T18:24:31.614Z,13.89
2018-09-30T18:27:00.618Z,13.81
2018-09-30T18:29:29.486Z,13.74
2018-09-30T18:31:58.638Z,13.68
2018-09-30T18:34:27.772Z,13.60
2018-09-30T18:36:57.397Z,13.52
2018-09-30T18:39:26.248Z,13.46
2018-09-30T18:41:55.091Z,13.41
2018-09-30T18:44:23.996Z,13.36
2018-09-30T18:46:52.824Z,13.30
2018-09-30T18:49:21.974Z,13.26
2018-09-30T18:51:50.837Z,13.20
2018-09-30T18:54:19.747Z,13.15
2018-09-30T18:56:48.611Z,13.10
2018-09-30T18:59:18.327Z,13.07
2018-09-30T19:01:47.147Z,13.02
2018-09-30T19:04:16.636Z,12.99
2018-09-30T19:06:45.504Z,12.98
2018-09-30T19:09:14.580Z,12.95
2018-09-30T19:11:43.817Z,12.92
2018-09-30T19:14:12.606Z,12.91
2018-09-30T19:16:41.719Z,12.87
2018-09-30T19:19:10.547Z,12.85
2018-09-30T19:21:39.899Z,12.83
2018-09-30T19:24:08.834Z,12.82
2018-09-30T19:26:37.679Z,12.79
2018-09-30T19:29:06.493Z,12.76
2018-09-30T19:31:35.342Z,12.72
2018-09-30T19:34:04.226Z,12.70
2018-09-30T19:36:33.141Z,12.68
2018-09-30T19:39:01.909Z,12.63
2018-09-30T19:41:30.904Z,12.60
2018-09-30T19:43:59.898Z,12.58
2018-09-30T19:46:28.711Z,12.57
2018-09-30T19:48:57.992Z,12.55
2018-09-30T19:51:26.789Z,12.56
2018-09-30T19:53:55.587Z,12.55
2018-09-30T19:56:24.848Z,12.54
2018-09-30T19:58:54.016Z,12.55
2018-09-30T20:01:22.837Z,12.55
2018-09-30T20:03:51.711Z,12.55
2018-09-30T20:06:21.411Z,12.53
2018-09-30T20:08:50.938Z,12.51
2018-09-30T20:11:19.945Z,12.51
2018-09-30T20:13:49.033Z,12.49
2018-09-30T20:16:17.854Z,12.49
2018-09-30T20:18:46.610Z,12.49
2018-09-30T20:21:15.396Z,12.52
2018-09-30T20:23:44.320Z,12.53
2018-09-30T20:26:13.722Z,12.55
2018-09-30T20:28:43.075Z,12.56
2018-09-30T20:31:11.800Z,12.57
2018-09-30T20:33:40.623Z,12.58
2018-09-30T20:36:09.413Z,12.58
2018-09-30T20:38:38.288Z,12.59
2018-09-30T20:41:07.171Z,12.59
2018-09-30T20:43:35.941Z,12.59
2018-09-30T20:46:05.345Z,12.59
2018-09-30T20:48:34.277Z,12.61
2018-09-30T20:51:03.079Z,12.59
2018-09-30T20:53:31.865Z,12.59
2018-09-30T20:56:00.743Z,12.60
2018-09-30T20:58:29.744Z,12.60
2018-09-30T21:00:58.838Z,12.58
2018-09-30T21:03:28.907Z,12.58
2018-09-30T21:06:36.759Z,12.57
2018-09-30T21:09:08.520Z,12.55
2018-09-30T21:11:37.394Z,12.53
2018-09-30T21:14:06.461Z,12.55
2018-09-30T21:16:35.478Z,12.56
2018-09-30T21:19:04.639Z,12.55
2018-09-30T21:21:33.432Z,12.56
2018-09-30T21:24:02.277Z,12.55
2018-09-30T21:26:34.078Z,12.56
2018-09-30T21:29:03.179Z,12.55
2018-09-30T21:31:32.057Z,12.54
2018-09-30T21:34:01.437Z,12.53
2018-09-30T21:36:30.282Z,12.53
2018-09-30T21:38:59.119Z,12.53
2018-09-30T21:41:27.958Z,12.51
2018-09-30T21:43:57.167Z,12.48
2018-09-30T21:46:26.048Z,12.46
2018-09-30T21:48:56.413Z,12.46
2018-09-30T21:51:25.819Z,12.47
2018-09-30T21:53:54.679Z,12.49
2018-09-30T21:56:24.099Z,12.45
2018-09-30T21:58:53.274Z,12.45
2018-09-30T22:01:22.241Z,12.44
2018-09-30T22:03:51.275Z,12.42
2018-09-30T22:06:20.107Z,12.42
2018-09-30T22:08:49.114Z,12.42
2018-09-30T22:11:18.475Z,12.44
2018-09-30T22:13:48.144Z,12.46
2018-09-30T22:16:17.178Z,12.47
2018-09-30T22:18:45.982Z,12.47
2018-09-30T22:21:14.903Z,12.46
2018-09-30T22:23:43.770Z,12.47
2018-09-30T22:26:12.793Z,12.46
2018-09-30T22:28:42.010Z,12.42
2018-09-30T22:31:11.176Z,12.43
2018-09-30T22:33:39.944Z,12.44
2018-09-30T22:36:09.130Z,12.42
2018-09-30T22:38:38.618Z,12.42
2018-09-30T22:41:07.684Z,12.37
2018-09-30T22:43:36.663Z,12.38
2018-09-30T22:46:05.443Z,12.35
2018-09-30T22:48:34.434Z,12.35
2018-09-30T22:51:03.286Z,12.36
2018-09-30T22:53:32.163Z,12.36
2018-09-30T22:56:07.500Z,12.34
2018-09-30T22:58:36.372Z,12.32
2018-09-30T23:01:05.652Z,12.28
2018-09-30T23:03:34.650Z,12.22
2018-09-30T23:06:03.427Z,12.20
2018-09-30T23:08:32.280Z,12.22
2018-09-30T23:11:01.156Z,12.18
2018-09-30T23:13:30.058Z,12.13
2018-09-30T23:15:58.977Z,12.10
2018-09-30T23:18:28.185Z,12.07
2018-09-30T23:20:57.338Z,12.05
2018-09-30T23:23:26.182Z,12.05
2018-09-30T23:25:55.107Z,12.04
2018-09-30T23:28:24.554Z,12.04
2018-09-30T23:30:53.658Z,12.04
2018-09-30T23:33:23.441Z,12.03
2018-09-30T23:35:52.234Z,12.02
2018-09-30T23:38:21.520Z,12.02
2018-09-30T23:40:50.332Z,12.03
2018-09-30T23:43:19.097Z,12.04
2018-09-30T23:45:47.918Z,12.03
2018-09-30T23:48:17.063Z,12.02
2018-09-30T23:50:46.446Z,12.00
2018-09-30T23:53:15.222Z,11.99
2018-09-30T23:55:44.105Z,11.97
2018-09-30T23:58:14.033Z,11.95
